createdAt,value
2019-05-12T00:00:42.183Z,7.20
2019-05-12T00:06:11.448Z,7.20
2019-05-12T00:11:41.027Z,7.20
2019-05-12T00:17:10.275Z,7.30
2019-05-12T00:22:48.147Z,7.30
2019-05-12T00:28:17.955Z,7.40
2019-05-12T00:33:48.067Z,7.50
2019-05-12T00:39:19.087Z,7.60
2019-05-12T00:44:48.552Z,7.60
2019-05-12T00:50:18.432Z,7.70
2019-05-12T00:55:47.774Z,7.70
2019-05-12T01:01:18.369Z,7.70
2019-05-12T01:06:51.961Z,7.60
2019-05-12T01:12:20.584Z,7.60
2019-05-12T01:17:49.839Z,7.60
2019-05-12T01:23:23.056Z,7.50
2019-05-12T01:28:50.093Z,7.50
2019-05-12T01:34:19.352Z,7.50
2019-05-12T01:39:49.228Z,7.50
2019-05-12T01:45:19.835Z,7.50
2019-05-12T01:50:49.399Z,7.50
2019-05-12T01:56:20.409Z,7.50
2019-05-12T02:01:49.656Z,7.40
2019-05-12T02:07:18.951Z,7.40
2019-05-12T02:12:49.136Z,7.40
2019-05-12T02:18:18.563Z,7.40
2019-05-12T02:23:47.936Z,7.30
2019-05-12T02:29:18.301Z,7.30
2019-05-12T02:34:47.731Z,7.20
2019-05-12T02:40:18.373Z,7.20
2019-05-12T02:45:47.723Z,7.10
2019-05-12T02:51:17.512Z,7.10
2019-05-12T02:56:48.419Z,7.10
2019-05-12T03:02:17.846Z,7.00
2019-05-12T03:07:48.987Z,7.00
2019-05-12T03:13:18.261Z,7.00
2019-05-12T03:18:47.529Z,6.90
2019-05-12T03:24:17.629Z,6.80
2019-05-12T03:29:47.136Z,6.80
2019-05-12T03:35:20.317Z,6.80
2019-05-12T03:40:49.562Z,6.70
2019-05-12T03:46:18.838Z,6.70
2019-05-12T03:51:48.095Z,6.60
2019-05-12T03:57:17.368Z,6.60
2019-05-12T04:02:46.719Z,6.50
2019-05-12T04:08:16.279Z,6.50
2019-05-12T04:13:45.539Z,6.40
2019-05-12T04:19:15.082Z,6.30
2019-05-12T04:24:44.660Z,6.30
2019-05-12T04:30:14.687Z,6.20
2019-05-12T04:35:45.174Z,6.20
2019-05-12T04:41:14.833Z,6.10
2019-05-12T04:46:44.988Z,6.00
2019-05-12T04:52:15.566Z,6.00
2019-05-12T04:57:45.321Z,5.90
2019-05-12T05:03:14.586Z,5.90
2019-05-12T05:08:44.407Z,5.90
2019-05-12T05:14:14.422Z,5.80
2019-05-12T05:19:44.149Z,5.80
2019-05-12T05:25:14.441Z,5.70
2019-05-12T05:30:44.259Z,5.70
2019-05-12T05:36:19.458Z,5.60
2019-05-12T05:41:48.875Z,5.50
2019-05-12T05:47:19.765Z,5.50
2019-05-12T05:52:46.650Z,5.40
2019-05-12T05:58:15.912Z,5.40
2019-05-12T06:03:45.246Z,5.30
2019-05-12T06:09:14.503Z,5.20
2019-05-12T06:14:46.736Z,5.20
2019-05-12T06:20:16.751Z,5.10
2019-05-12T06:25:51.363Z,5.10
2019-05-12T06:31:18.997Z,5.00
2019-05-12T06:36:48.168Z,5.00
2019-05-12T06:42:18.405Z,4.90
2019-05-12T06:47:49.624Z,4.90
2019-05-12T06:53:20.363Z,4.90
2019-05-12T06:58:50.177Z,4.90
2019-05-12T07:04:21.263Z,4.90
2019-05-12T07:09:54.210Z,4.90
2019-05-12T07:15:23.295Z,4.90
2019-05-12T07:20:53.765Z,4.90
2019-05-12T07:26:23.623Z,4.80
2019-05-12T07:31:53.676Z,4.80
2019-05-12T07:37:24.750Z,4.80
2019-05-12T07:42:59.389Z,4.80
2019-05-12T07:48:28.825Z,4.90
2019-05-12T07:53:58.969Z,4.80
2019-05-12T07:59:38.925Z,4.80
2019-05-12T08:05:00.654Z,4.90
2019-05-12T08:10:30.060Z,5.00
2019-05-12T08:15:59.337Z,5.00
2019-05-12T08:21:28.608Z,5.00
2019-05-12T08:27:03.136Z,5.00
2019-05-12T08:32:28.966Z,5.00
2019-05-12T08:37:59.277Z,5.10
2019-05-12T08:43:28.553Z,5.20
2019-05-12T08:49:02.238Z,5.20
2019-05-12T08:54:29.855Z,5.20
2019-05-12T09:00:02.851Z,5.20
2019-05-12T09:05:34.551Z,5.20
2019-05-12T09:11:03.540Z,5.20
2019-05-12T09:16:35.538Z,5.20
2019-05-12T09:22:15.995Z,5.20
2019-05-12T09:27:39.625Z,5.30
2019-05-12T09:33:07.033Z,5.40
2019-05-12T09:38:37.293Z,5.40
2019-05-12T09:44:06.997Z,5.40
2019-05-12T09:49:44.453Z,5.40
2019-05-12T09:55:15.954Z,5.40
2019-05-12T10:00:45.863Z,5.50
2019-05-12T10:06:21.133Z,5.60
2019-05-12T10:11:53.965Z,5.70
2019-05-12T10:17:20.350Z,5.80
2019-05-12T10:22:49.857Z,5.80
2019-05-12T10:28:20.116Z,5.90
2019-05-12T10:34:20.768Z,6.10
2019-05-12T10:39:50.198Z,6.20
2019-05-12T10:45:23.863Z,6.20
2019-05-12T10:50:53.697Z,6.30
2019-05-12T10:56:24.018Z,6.30
2019-05-12T11:01:54.085Z,6.30
2019-05-12T11:07:27.980Z,6.40
2019-05-12T11:12:59.261Z,6.40
2019-05-12T11:18:30.583Z,6.50
2019-05-12T11:23:59.851Z,6.50
2019-05-12T11:29:44.859Z,6.50
2019-05-12T11:35:00.361Z,6.50
2019-05-12T11:40:30.610Z,6.50
2019-05-12T11:46:00.809Z,6.50
2019-05-12T11:51:34.079Z,6.60
2019-05-12T11:57:03.977Z,6.70
2019-05-12T12:02:37.085Z,6.70
2019-05-12T12:08:15.374Z,6.70
2019-05-12T12:14:05.564Z,6.80
2019-05-12T12:19:43.539Z,6.90
2019-05-12T12:25:10.689Z,6.80
2019-05-12T12:30:40.633Z,7.30
2019-05-12T12:36:09.973Z,7.10
2019-05-12T12:41:55.248Z,7.00
2019-05-12T12:47:19.323Z,6.80
2019-05-12T12:52:48.984Z,6.80
2019-05-12T12:58:29.479Z,6.80
2019-05-12T13:03:59.192Z,6.90
2019-05-12T13:09:28.702Z,7.10
2019-05-12T13:15:04.629Z,7.20
2019-05-12T13:20:34.897Z,7.20
2019-05-12T13:26:04.439Z,7.40
2019-05-12T13:31:33.762Z,7.50
2019-05-12T13:37:03.448Z,7.60
2019-05-12T13:42:35.822Z,7.60
2019-05-12T13:48:09.538Z,8.10
2019-05-12T13:53:40.279Z,8.00
2019-05-12T13:59:06.907Z,7.90
2019-05-12T14:04:36.170Z,7.80
2019-05-12T14:10:10.936Z,7.70
2019-05-12T14:15:44.292Z,7.50
2019-05-12T14:21:14.086Z,7.40
2019-05-12T14:26:48.057Z,7.40
2019-05-12T14:32:17.280Z,7.30
2019-05-12T14:37:47.585Z,7.60
2019-05-12T14:43:21.908Z,7.50
2019-05-12T14:48:50.771Z,7.40
2019-05-12T14:54:20.056Z,7.30
2019-05-12T14:59:50.291Z,7.30
2019-05-12T15:05:25.231Z,7.20
2019-05-12T15:10:53.466Z,7.20
2019-05-12T15:16:23.799Z,7.20
2019-05-12T15:22:01.512Z,7.20
2019-05-12T15:27:42.333Z,7.30
2019-05-12T15:33:05.701Z,7.40
2019-05-12T15:38:35.035Z,7.50
2019-05-12T15:44:06.583Z,7.60
2019-05-12T15:49:37.471Z,7.60
2019-05-12T15:55:08.821Z,7.60
2019-05-12T16:00:43.341Z,7.70
2019-05-12T16:06:15.195Z,7.80
2019-05-12T16:11:44.460Z,7.80
2019-05-12T16:17:16.899Z,7.80
2019-05-12T16:23:04.261Z,7.80
2019-05-12T16:28:33.862Z,7.80
2019-05-12T16:34:06.126Z,7.80
2019-05-12T16:39:41.822Z,7.80
2019-05-12T16:45:10.117Z,7.80
2019-05-12T16:50:39.962Z,7.80
2019-05-12T16:56:10.372Z,7.80
2019-05-12T17:01:40.242Z,7.70
2019-05-12T17:07:17.042Z,7.70
2019-05-12T17:12:44.047Z,7.60
2019-05-12T17:18:13.730Z,7.60
2019-05-12T17:23:43.055Z,7.60
2019-05-12T17:29:13.871Z,7.60
2019-05-12T17:34:50.398Z,7.60
2019-05-12T17:40:20.531Z,7.60
2019-05-12T17:45:50.471Z,7.50
2019-05-12T17:51:26.821Z,7.50
2019-05-12T17:56:52.190Z,7.50
2019-05-12T18:02:23.681Z,7.50
2019-05-12T18:07:55.512Z,7.40
2019-05-12T18:13:27.985Z,7.40
2019-05-12T18:18:56.244Z,7.30
2019-05-12T18:24:28.571Z,7.20
2019-05-12T18:29:57.993Z,7.20
2019-05-12T18:35:27.339Z,7.10
2019-05-12T18:40:58.418Z,7.00
2019-05-12T18:46:38.691Z,7.00
2019-05-12T18:52:07.013Z,6.90
2019-05-12T18:57:39.213Z,6.90
2019-05-12T19:03:10.302Z,6.90
2019-05-12T19:08:39.676Z,6.90
2019-05-12T19:14:09.174Z,6.80
2019-05-12T19:19:38.538Z,6.80
2019-05-12T19:25:08.798Z,6.80
2019-05-12T19:30:39.295Z,6.80
2019-05-12T19:36:08.719Z,6.70
2019-05-12T19:41:38.253Z,6.70
2019-05-12T19:47:33.587Z,6.70
2019-05-12T19:52:58.240Z,6.70
2019-05-12T19:58:27.636Z,6.70
2019-05-12T20:03:58.087Z,6.70
2019-05-12T20:09:27.602Z,6.70
2019-05-12T20:14:59.072Z,6.60
2019-05-12T20:20:36.565Z,6.70
2019-05-12T20:25:59.441Z,6.60
2019-05-12T20:31:28.820Z,6.60
2019-05-12T20:36:59.092Z,6.60
2019-05-12T20:42:33.935Z,6.60
2019-05-12T20:48:00.663Z,6.50
2019-05-12T20:53:31.781Z,6.50
2019-05-12T20:59:03.636Z,6.50
2019-05-12T21:04:37.487Z,6.50
2019-05-12T21:10:05.832Z,6.40
2019-05-12T21:15:41.145Z,6.40
2019-05-12T21:21:06.606Z,6.40
2019-05-12T21:26:37.887Z,6.40
2019-05-12T21:32:12.335Z,6.40
2019-05-12T21:37:45.552Z,6.30
2019-05-12T21:43:09.831Z,6.30
2019-05-12T21:48:39.305Z,6.20
2019-05-12T21:54:08.862Z,6.20
2019-05-12T21:59:39.763Z,6.20
2019-05-12T22:05:13.943Z,6.20
2019-05-12T22:10:44.536Z,6.20
2019-05-12T22:16:14.314Z,6.20
2019-05-12T22:21:49.247Z,6.10
2019-05-12T22:27:25.493Z,6.10
2019-05-12T22:32:49.170Z,6.10
2019-05-12T22:38:21.005Z,6.00
2019-05-12T22:43:49.834Z,6.00
2019-05-12T22:49:20.987Z,5.90
2019-05-12T22:54:51.061Z,5.90
2019-05-12T23:00:21.742Z,5.90
2019-05-12T23:06:01.267Z,5.90
2019-05-12T23:11:32.008Z,6.00
2019-05-12T23:17:05.782Z,6.00
2019-05-12T23:22:35.151Z,6.00
2019-05-12T23:28:08.419Z,6.00
2019-05-12T23:33:36.744Z,6.00
2019-05-12T23:39:07.975Z,6.00
2019-05-12T23:44:37.410Z,6.00
2019-05-12T23:50:08.841Z,6.00
2019-05-12T23:55:38.443Z,6.00
